Time;durP1;ratioP1;P1;durP2;ratioP2;P2;SDS_P1;SDS_P2;PMS_P1;PMS_P2;Temp;Humidity;BMP_temperature;BMP_pressure;BME280_temperature;BME280_humidity;BME280_pressure;Samples;Min_cycle;Max_cycle;Signal;HPM_P1;HPM_P2
2022/12/16 00:01:15;;;;;;;47.03;31.80;;;0.40;20.60;;;;;;5076636;28;20237;-79
2022/12/16 00:03:47;;;;;;;46.07;34.50;;;0.40;21.90;;;;;;5097851;28;20167;-79
2022/12/16 00:06:12;;;;;;;51.37;35.07;;;0.50;20.00;;;;;;5075703;28;20179;-79
2022/12/16 00:08:39;;;;;;;44.07;33.23;;;0.50;15.90;;;;;;5108837;28;20158;-79
2022/12/16 00:11:05;;;;;;;49.73;33.00;;;0.40;16.90;;;;;;5116243;28;20195;-79
2022/12/16 00:13:32;;;;;;;46.33;32.37;;;0.50;18.80;;;;;;5117654;28;20187;-79
2022/12/16 00:15:59;;;;;;;43.00;31.40;;;0.40;19.10;;;;;;5111896;28;20171;-79
2022/12/16 00:18:25;;;;;;;47.40;31.37;;;0.40;21.40;;;;;;5096690;28;20175;-81
2022/12/16 00:20:54;;;;;;;46.63;31.43;;;0.50;19.20;;;;;;5094757;28;20254;-79
2022/12/16 00:23:20;;;;;;;45.17;31.03;;;0.50;20.50;;;;;;5093179;28;20197;-80
2022/12/16 00:25:47;;;;;;;48.00;30.33;;;0.50;19.60;;;;;;5094500;28;20282;-81
2022/12/16 00:28:15;;;;;;;44.90;31.50;;;0.40;18.80;;;;;;5078856;28;20180;-79
2022/12/16 00:30:42;;;;;;;37.43;28.77;;;0.60;19.10;;;;;;5096745;28;20172;-80
2022/12/16 00:33:08;;;;;;;40.97;29.77;;;0.50;20.10;;;;;;5096864;28;20168;-79
2022/12/16 00:35:34;;;;;;;39.33;27.87;;;0.50;21.10;;;;;;5078684;28;20258;-79
2022/12/16 00:37:59;;;;;;;42.50;30.10;;;0.40;20.30;;;;;;5078276;28;20217;-79
2022/12/16 00:40:25;;;;;;;42.67;29.90;;;0.60;21.30;;;;;;5096753;28;20305;-79
2022/12/16 00:42:51;;;;;;;38.33;28.20;;;0.60;19.20;;;;;;5096609;28;20164;-80
2022/12/16 00:45:17;;;;;;;41.20;28.80;;;0.70;19.30;;;;;;5096912;28;20167;-78
2022/12/16 00:47:43;;;;;;;40.20;27.77;;;0.70;17.00;;;;;;5078455;28;20171;-78
2022/12/16 00:50:10;;;;;;;39.57;27.70;;;0.70;16.60;;;;;;5096811;28;20229;-80
2022/12/16 00:52:37;;;;;;;40.03;29.87;;;0.60;17.70;;;;;;5096350;28;20168;-79
2022/12/16 00:55:03;;;;;;;42.17;29.37;;;0.60;19.00;;;;;;5078784;28;20190;-79
2022/12/16 00:57:29;;;;;;;40.47;29.03;;;0.50;19.90;;;;;;5110984;28;20207;-78
2022/12/16 00:59:54;;;;;;;39.30;27.47;;;0.60;20.20;;;;;;5112244;28;20218;-80
2022/12/16 01:02:20;;;;;;;35.43;27.37;;;0.40;20.80;;;;;;5099937;28;20646;-79
2022/12/16 01:04:46;;;;;;;38.40;28.13;;;0.30;21.90;;;;;;5096020;28;20578;-79
2022/12/16 01:07:11;;;;;;;38.70;27.20;;;0.30;23.40;;;;;;5095930;28;20582;-79
2022/12/16 01:09:37;;;;;;;34.67;26.67;;;0.30;24.70;;;;;;5096028;28;20195;-79
2022/12/16 01:12:04;;;;;;;38.47;26.67;;;0.30;25.10;;;;;;5077556;28;20194;-79
2022/12/16 01:14:30;;;;;;;35.17;26.13;;;0.20;24.60;;;;;;5078000;28;20179;-78
2022/12/16 01:16:56;;;;;;;35.90;26.53;;;0.20;24.70;;;;;;5095759;28;20164;-79
2022/12/16 01:19:22;;;;;;;35.83;25.90;;;0.20;22.00;;;;;;5095928;28;20195;-80
2022/12/16 01:21:47;;;;;;;35.67;26.73;;;0.20;22.10;;;;;;5095494;28;20530;-78
2022/12/16 01:24:13;;;;;;;39.30;26.70;;;0.30;22.20;;;;;;5077596;28;20176;-78
2022/12/16 01:26:39;;;;;;;38.47;27.50;;;0.10;20.70;;;;;;5096055;28;20183;-79
2022/12/16 01:29:06;;;;;;;39.27;27.03;;;0.10;23.40;;;;;;5099799;28;20171;-79
2022/12/16 01:31:32;;;;;;;38.80;27.93;;;0.20;24.90;;;;;;5079491;28;20175;-78
2022/12/16 01:33:58;;;;;;;40.33;28.93;;;0.50;21.30;;;;;;5111427;28;20170;-78
2022/12/16 01:36:23;;;;;;;40.40;28.67;;;0.50;21.30;;;;;;5104566;28;20262;-78
2022/12/16 01:38:49;;;;;;;43.53;28.80;;;0.70;21.10;;;;;;5078691;28;20206;-80
2022/12/16 01:41:16;;;;;;;37.37;27.67;;;0.60;20.10;;;;;;5078344;28;20847;-79
2022/12/16 01:43:42;;;;;;;34.57;26.87;;;0.60;19.80;;;;;;5095456;28;20197;-79
2022/12/16 01:46:20;;;;;;;39.70;27.67;;;0.60;20.30;;;;;;5088046;28;20194;-79
2022/12/16 01:49:00;;;;;;;41.93;28.27;;;0.70;19.80;;;;;;5110880;28;20159;-80
2022/12/16 01:51:35;;;;;;;43.97;29.40;;;0.70;19.80;;;;;;5085282;28;20298;-79
2022/12/16 01:54:23;;;;;;;39.47;27.33;;;0.70;18.00;;;;;;5095869;28;20163;-80
2022/12/16 01:57:03;;;;;;;42.57;28.03;;;0.60;17.50;;;;;;5095023;28;20175;-79
2022/12/16 01:59:32;;;;;;;38.37;27.90;;;0.40;18.90;;;;;;5095809;28;20720;-79
2022/12/16 02:01:59;;;;;;;38.27;28.13;;;0.50;20.70;;;;;;5077284;28;20530;-79
2022/12/16 02:04:24;;;;;;;40.70;26.80;;;0.60;19.90;;;;;;5076459;28;20172;-79
2022/12/16 02:06:50;;;;;;;37.00;27.67;;;0.60;19.50;;;;;;5076786;28;20194;-79
2022/12/16 02:09:17;;;;;;;39.03;28.27;;;0.50;18.60;;;;;;5094934;28;20171;-80
2022/12/16 02:12:18;;;;;;;41.30;28.73;;;0.50;21.50;;;;;;5094828;28;20583;-81
2022/12/16 02:15:12;;;;;;;35.07;26.37;;;0.50;21.70;;;;;;5094767;28;20171;-80
2022/12/16 02:17:51;;;;;;;44.37;27.40;;;0.50;21.80;;;;;;5094412;28;20168;-79
2022/12/16 02:20:54;;;;;;;40.30;27.90;;;0.50;21.90;;;;;;5075597;28;20256;-78
2022/12/16 02:23:38;;;;;;;37.03;26.23;;;0.50;23.40;;;;;;5094447;28;20216;-79
2022/12/16 02:26:34;;;;;;;36.60;26.20;;;0.60;24.00;;;;;;5094712;28;20174;-79
2022/12/16 02:29:07;;;;;;;39.77;27.57;;;0.90;21.30;;;;;;5094893;28;20183;-79
2022/12/16 02:31:44;;;;;;;37.90;26.70;;;0.90;19.00;;;;;;5094940;28;20204;-79
2022/12/16 02:34:24;;;;;;;35.57;25.90;;;0.90;17.80;;;;;;5094460;28;20167;-79
2022/12/16 02:37:12;;;;;;;36.90;26.47;;;0.90;17.40;;;;;;5095038;28;20168;-78
2022/12/16 02:39:44;;;;;;;38.67;27.67;;;1.00;17.70;;;;;;5084635;28;20223;-78
2022/12/16 02:42:30;;;;;;;39.80;27.70;;;1.10;18.00;;;;;;5094980;28;20170;-78
2022/12/16 02:45:17;;;;;;;34.10;26.47;;;1.00;15.40;;;;;;5094206;28;20163;-78
2022/12/16 02:47:43;;;;;;;40.10;27.03;;;1.10;15.20;;;;;;5093719;28;20635;-78
2022/12/16 02:50:24;;;;;;;39.70;29.47;;;1.30;15.20;;;;;;5094155;28;20202;-79
2022/12/16 02:52:53;;;;;;;37.70;26.90;;;1.50;10.90;;;;;;5111865;28;20218;-78
2022/12/16 02:55:21;;;;;;;35.13;27.40;;;1.50;8.40;;;;;;5113779;28;20160;-79
2022/12/16 02:58:17;;;;;;;40.57;26.63;;;1.40;7.90;;;;;;5114389;28;20268;-79
2022/12/16 03:01:33;;;;;;;39.83;27.00;;;1.40;7.20;;;;;;5114723;28;20175;-79
2022/12/16 03:04:39;;;;;;;38.30;26.63;;;1.50;8.00;;;;;;5113817;28;20606;-80
2022/12/16 03:07:08;;;;;;;39.87;28.67;;;1.40;5.90;;;;;;5114124;28;20167;-79
2022/12/16 03:09:37;;;;;;;37.10;26.63;;;1.50;6.00;;;;;;5114280;28;20280;-80
2022/12/16 03:12:08;;;;;;;34.27;25.40;;;1.30;6.50;;;;;;5114577;28;20210;-78
2022/12/16 03:14:37;;;;;;;38.33;27.57;;;1.20;8.50;;;;;;5133695;28;20166;-79
2022/12/16 03:17:03;;;;;;;35.00;27.73;;;1.20;11.10;;;;;;5121529;28;20190;-78
2022/12/16 03:19:31;;;;;;;38.33;27.53;;;1.30;11.60;;;;;;5139452;28;20203;-79
2022/12/16 03:22:17;;;;;;;34.27;26.47;;;1.50;9.10;;;;;;5126609;28;20175;-80
2022/12/16 03:24:46;;;;;;;37.80;26.23;;;1.40;8.70;;;;;;5114261;28;20685;-79
2022/12/16 03:27:26;;;;;;;43.10;28.40;;;1.50;8.70;;;;;;5096055;28;20179;-79
2022/12/16 03:30:16;;;;;;;39.13;27.03;;;1.70;7.20;;;;;;5114155;28;20178;-79
2022/12/16 03:32:55;;;;;;;37.63;26.90;;;1.70;4.80;;;;;;5113710;28;20170;-79
2022/12/16 03:35:32;;;;;;;42.10;28.63;;;1.80;1.00;;;;;;5114654;28;20167;-79
2022/12/16 03:38:00;;;;;;;36.77;27.57;;;1.80;1.00;;;;;;5095329;28;20191;-79
2022/12/16 03:40:27;;;;;;;37.93;27.23;;;1.70;2.30;;;;;;5113532;28;20207;-79
2022/12/16 03:42:55;;;;;;;35.93;26.93;;;1.70;6.10;;;;;;5113637;28;20166;-79
2022/12/16 03:45:25;;;;;;;38.57;27.57;;;1.90;8.30;;;;;;5113062;28;20193;-79
2022/12/16 03:47:52;;;;;;;35.87;26.17;;;1.70;8.30;;;;;;5113988;28;20163;-79
2022/12/16 03:50:24;;;;;;;37.87;26.57;;;1.60;9.60;;;;;;5114377;28;20158;-79
2022/12/16 03:52:49;;;;;;;41.13;27.60;;;1.70;11.80;;;;;;5113813;28;20224;-79
2022/12/16 03:55:15;;;;;;;40.50;27.57;;;1.90;12.10;;;;;;5095969;28;20261;-79
2022/12/16 03:57:40;;;;;;;38.80;28.17;;;2.10;10.10;;;;;;5095419;28;20183;-78
2022/12/16 04:00:08;;;;;;;37.20;27.40;;;2.00;7.70;;;;;;5113658;28;20285;-79
2022/12/16 04:02:33;;;;;;;39.87;26.30;;;2.10;7.30;;;;;;5118088;28;20193;-79
2022/12/16 04:04:59;;;;;;;38.27;25.97;;;2.30;7.60;;;;;;5117907;28;20170;-79
2022/12/16 04:07:25;;;;;;;39.57;27.17;;;2.30;8.10;;;;;;5142049;28;20151;-79
2022/12/16 04:09:51;;;;;;;37.07;26.37;;;2.30;8.50;;;;;;5105614;28;20179;-78
2022/12/16 04:26:09;;;;;;;37.60;23.33;;;1.90;69.30;;;;;;5140933;28;20185;-80
2022/12/16 04:28:35;;;;;;;39.83;25.70;;;1.80;81.30;;;;;;5104812;28;20718;-80
2022/12/16 04:31:02;;;;;;;43.10;26.87;;;1.90;86.60;;;;;;5117696;28;20209;-80
